Morning Cedar — D7LR — position and weather

sailwx.info

Track history (hours):
 
Tides and Currents Weather Stations Pressure Air Temp Water Temp Dewpoint Dewpoint Depression Visibility Wind Speed Wind Dir Waves Ship Positions

Morning Cedar

Last reported at 2015-Feb-16 00:16 UTC. Time now 2015-Mar-30 05:54 UTC.
Position S 27°07' E 153°50'.
Warning: this ship's position is 42 days out of date.

Length 269 m; draft 15 m.

Type: Cargo ship. MMSI: 440106000.

Date/timePositionNaut miles runAvg speedWind from/ knotsBaromVisibWave heightAir tempDewpointWater temp
2015-Feb-16 00:16S 27°07' E 153°50'11 9.3
2015-Feb-15 23:03S 27°18' E 153°49'5 9.1
2015-Feb-15 22:33S 27°23' E 153°49'10 9.0
2015-Feb-15 21:25S 27°33' E 153°48'11 8.8
2015-Feb-15 20:11S 27°44' E 153°49'5 8.7
2015-Feb-15 19:33S 27°49' E 153°48'9 9.0
2015-Feb-15 18:32S 27°58' E 153°47'9 9.0
2015-Feb-15 17:33S 28°07' E 153°47'27 8.7
2015-Feb-15 14:27S 28°34' E 153°46'239 9.2
2015-Feb-14 12:32S 32°26' E 152°39'9 8.9
2015-Feb-14 11:33S 32°33' E 152°34'9 8.9
2015-Feb-14 10:33S 32°41' E 152°28'9 8.9
2015-Feb-14 09:33S 32°47' E 152°21'9 8.7
2015-Feb-14 08:33S 32°52' E 152°12'9 9.0
2015-Feb-14 07:33S 32°56' E 152°02'9 8.9
2015-Feb-14 06:32S 32°58' E 151°52'5 5.5
2015-Feb-14 05:32S 32°55' E 151°46'2 0.3
2015-Feb-13 21:23S 32°53' E 151°45'0 0.0
2015-Feb-13 20:17S 32°53' E 151°45'0 0.0
2015-Feb-13 19:23S 32°53' E 151°45'0 0.0
2015-Feb-13 18:17S 32°53' E 151°45'0 0.0
2015-Feb-13 17:23S 32°53' E 151°45'0 0.0
2015-Feb-13 15:23S 32°53' E 151°45'0 0.0
2015-Feb-13 14:05S 32°53' E 151°45'0 0.0
2015-Feb-13 13:32S 32°53' E 151°45'0 0.0
2015-Feb-13 12:32S 32°53' E 151°45'0 0.0
2015-Feb-13 11:17S 32°53' E 151°45'0 0.0
2015-Feb-13 10:29S 32°53' E 151°45'0 0.0
2015-Feb-13 09:29S 32°53' E 151°45'0 0.0
2015-Feb-13 07:29S 32°53' E 151°45'0 0.0
2015-Feb-13 06:05S 32°53' E 151°45'0 0.1
2015-Feb-13 05:17S 32°53' E 151°45'0 0.0
2015-Feb-13 00:11S 32°53' E 151°45'0 0.0
2015-Feb-12 23:29S 32°53' E 151°45'0 0.0
2015-Feb-12 22:23S 32°53' E 151°45'0 0.0
2015-Feb-12 21:29S 32°53' E 151°45'0 0.1
2015-Feb-12 19:33S 32°53' E 151°46'4 4.1
2015-Feb-12 18:34S 32°55' E 151°50'8 7.8
2015-Feb-12 17:33S 33°02' E 151°55'2 1.8
2015-Feb-12 16:33S 33°01' E 151°57'2 2.0
2015-Feb-12 15:33S 33°00' E 151°59'2 2.1
2015-Feb-12 14:33S 32°59' E 152°01'2 2.3
2015-Feb-12 13:33S 32°59' E 152°04'2 2.2
2015-Feb-12 12:33S 32°59' E 152°06'5 5.5
2015-Feb-12 11:33S 33°01' E 152°01'9 8.9
2015-Feb-12 10:33S 33°06' E 151°52'1 0.8
2015-Feb-12 09:09S 33°05' E 151°50'2 3.5
2015-Feb-12 08:32S 33°04' E 151°52'4 4.1
2015-Feb-12 07:33S 33°01' E 151°56'1312.8
2015-Feb-12 06:33S 32°55' E 152°09'1413.6
2015-Feb-12 05:33S 32°46' E 152°22'1413.7
2015-Feb-12 04:33S 32°36' E 152°32'2612.7
2015-Feb-12 02:30S 32°12' E 152°45'23913.2
2015-Feb-11 08:22S 28°19' E 153°47'911.1
2015-Feb-11 07:33S 28°10' E 153°47'1212.2
2015-Feb-11 06:33S 27°58' E 153°48'1312.7
2015-Feb-11 05:33S 27°45' E 153°48'1313.0
2015-Feb-11 04:33S 27°32' E 153°48'1413.0
2015-Feb-11 03:30S 27°18' E 153°49'1313.7
2015-Feb-11 02:32S 27°05' E 153°50'4112.5
2015-Feb-10 23:16S 26°25' E 153°52'  
Track history (hours):
 
Tides and Currents Weather Stations Pressure Air Temp Water Temp Dewpoint Dewpoint Depression Visibility Wind Speed Wind Dir Waves Ship Positions

Morning Cedar

Last reported at 2015-Feb-16 00:16 UTC. Time now 2015-Mar-30 05:54 UTC.
Position S 27°07' E 153°50'.
Warning: this ship's position is 42 days out of date.

Length 269 m; draft 15 m.

Type: Cargo ship. MMSI: 440106000.

Date/timePositionNaut miles runAvg speedWind from/ knotsBaromVisibWave heightAir tempDewpointWater temp
2015-Feb-16 00:16S 27°07' E 153°50'11 9.3
2015-Feb-15 23:03S 27°18' E 153°49'5 9.1
2015-Feb-15 22:33S 27°23' E 153°49'10 9.0
2015-Feb-15 21:25S 27°33' E 153°48'11 8.8
2015-Feb-15 20:11S 27°44' E 153°49'5 8.7
2015-Feb-15 19:33S 27°49' E 153°48'9 9.0
2015-Feb-15 18:32S 27°58' E 153°47'9 9.0
2015-Feb-15 17:33S 28°07' E 153°47'27 8.7
2015-Feb-15 14:27S 28°34' E 153°46'239 9.2
2015-Feb-14 12:32S 32°26' E 152°39'9 8.9
2015-Feb-14 11:33S 32°33' E 152°34'9 8.9
2015-Feb-14 10:33S 32°41' E 152°28'9 8.9
2015-Feb-14 09:33S 32°47' E 152°21'9 8.7
2015-Feb-14 08:33S 32°52' E 152°12'9 9.0
2015-Feb-14 07:33S 32°56' E 152°02'9 8.9
2015-Feb-14 06:32S 32°58' E 151°52'5 5.5
2015-Feb-14 05:32S 32°55' E 151°46'2 0.3
2015-Feb-13 21:23S 32°53' E 151°45'0 0.0
2015-Feb-13 20:17S 32°53' E 151°45'0 0.0
2015-Feb-13 19:23S 32°53' E 151°45'0 0.0
2015-Feb-13 18:17S 32°53' E 151°45'0 0.0
2015-Feb-13 17:23S 32°53' E 151°45'0 0.0
2015-Feb-13 15:23S 32°53' E 151°45'0 0.0
2015-Feb-13 14:05S 32°53' E 151°45'0 0.0
2015-Feb-13 13:32S 32°53' E 151°45'0 0.0
2015-Feb-13 12:32S 32°53' E 151°45'0 0.0
2015-Feb-13 11:17S 32°53' E 151°45'0 0.0
2015-Feb-13 10:29S 32°53' E 151°45'0 0.0
2015-Feb-13 09:29S 32°53' E 151°45'0 0.0
2015-Feb-13 07:29S 32°53' E 151°45'0 0.0
2015-Feb-13 06:05S 32°53' E 151°45'0 0.1
2015-Feb-13 05:17S 32°53' E 151°45'0 0.0
2015-Feb-13 00:11S 32°53' E 151°45'0 0.0
2015-Feb-12 23:29S 32°53' E 151°45'0 0.0
2015-Feb-12 22:23S 32°53' E 151°45'0 0.0
2015-Feb-12 21:29S 32°53' E 151°45'0 0.1
2015-Feb-12 19:33S 32°53' E 151°46'4 4.1
2015-Feb-12 18:34S 32°55' E 151°50'8 7.8
2015-Feb-12 17:33S 33°02' E 151°55'2 1.8
2015-Feb-12 16:33S 33°01' E 151°57'2 2.0
2015-Feb-12 15:33S 33°00' E 151°59'2 2.1
2015-Feb-12 14:33S 32°59' E 152°01'2 2.3
2015-Feb-12 13:33S 32°59' E 152°04'2 2.2
2015-Feb-12 12:33S 32°59' E 152°06'5 5.5
2015-Feb-12 11:33S 33°01' E 152°01'9 8.9
2015-Feb-12 10:33S 33°06' E 151°52'1 0.8
2015-Feb-12 09:09S 33°05' E 151°50'2 3.5
2015-Feb-12 08:32S 33°04' E 151°52'4 4.1
2015-Feb-12 07:33S 33°01' E 151°56'1312.8
2015-Feb-12 06:33S 32°55' E 152°09'1413.6
2015-Feb-12 05:33S 32°46' E 152°22'1413.7
2015-Feb-12 04:33S 32°36' E 152°32'2612.7
2015-Feb-12 02:30S 32°12' E 152°45'23913.2
2015-Feb-11 08:22S 28°19' E 153°47'911.1
2015-Feb-11 07:33S 28°10' E 153°47'1212.2
2015-Feb-11 06:33S 27°58' E 153°48'1312.7
2015-Feb-11 05:33S 27°45' E 153°48'1313.0
2015-Feb-11 04:33S 27°32' E 153°48'1413.0
2015-Feb-11 03:30S 27°18' E 153°49'1313.7
2015-Feb-11 02:32S 27°05' E 153°50'4112.5
2015-Feb-10 23:16S 26°25' E 153°52'  

Dump ship's entire track history